This is the latest recevied weather packets stored in our database for station/object N5ATR. If no packets are shown the sender has not sent any weather packets the latest 10 day(s).
| Time | Temp. | Humidity | Pressure | Rain* | Wind** | Luminosity | Snow |
|---|---|---|---|---|---|---|---|
| 1788381270 | 27.78° C | 32% | 1023 hPa | 0 mm | - | 178 W/m² | - |
| 1788380969 | 27.78° C | 30% | 1023.1 hPa | 0 mm | - | 701 W/m² | - |
| 1788380665 | 27.78° C | 32% | 1023.1 hPa | 0 mm | - | 135 W/m² | - |
| 1788380362 | 27.78° C | 32% | 1023.1 hPa | 0 mm | - | 694 W/m² | - |
| 1788380057 | 27.22° C | 33% | 1023.3 hPa | 0 mm | - | 739 W/m² | - |
| 1788379757 | 27.78° C | 32% | 1023.4 hPa | 0 mm | - | 764 W/m² | - |
| 1788379452 | 27.22° C | 33% | 1023.8 hPa | 0 mm | - | 790 W/m² | - |
| 1788379148 | 27.78° C | 33% | 1023.6 hPa | 0 mm | - | 787 W/m² | - |
| 1788378847 | 27.78° C | 33% | 1023.4 hPa | 0 mm | - | 149 W/m² | - |
| 1788378542 | 26.67° C | 35% | 1023.5 hPa | 0 mm | - | 841 W/m² | - |
| 1788378243 | 26.11° C | 36% | 1023.5 hPa | 0 mm | - | 187 W/m² | - |
| 1788377942 | 26.67° C | 36% | 1023.5 hPa | 0 mm | - | 890 W/m² | - |
| 1788377639 | 26.67° C | 35% | 1023.8 hPa | 0 mm | - | 631 W/m² | - |
| 1788377338 | 26.67° C | 35% | 1023.9 hPa | 0 mm | - | 186 W/m² | - |
| 1788377037 | 25.56° C | 37% | 1024 hPa | 0 mm | - | 188 W/m² | - |
| 1788376736 | 25.56° C | 38% | 1024 hPa | 0 mm | - | 180 W/m² | - |
| 1788376432 | 25.56° C | 37% | 1024.2 hPa | 0 mm | - | 172 W/m² | - |
| 1788376127 | 25.56° C | 37% | 1024.4 hPa | 0 mm | - | 174 W/m² | - |
| 1788375827 | 26.11° C | 36% | 1024.1 hPa | 0 mm | - | 156 W/m² | - |
| 1788375523 | 26.67° C | 35% | 1024.2 hPa | 0 mm | - | 875 W/m² | - |
| 1788375218 | 25° C | 38% | 1024.1 hPa | 0 mm | - | 196 W/m² | - |
| 1788374914 | 25° C | 38% | 1024.5 hPa | 0 mm | - | 156 W/m² | - |
| 1788374609 | 25° C | 38% | 1024.7 hPa | 0 mm | - | 137 W/m² | - |
| 1788374305 | 25.56° C | 37% | 1024.6 hPa | 0 mm | - | 147 W/m² | - |
| 1788374001 | 25.56° C | 37% | 1024.6 hPa | 0 mm | - | 458 W/m² | - |
* Rain latest hour (hover to see other rain measurements)
** Current wind speed in m/s (hover to see current wind gust speed)